createdAt,value
2017-08-19T00:00:55.559Z,17.10
2017-08-19T00:03:23.081Z,17.20
2017-08-19T00:05:51.149Z,17.20
2017-08-19T00:08:18.652Z,17.20
2017-08-19T00:10:47.397Z,17.20
2017-08-19T00:13:14.899Z,17.20
2017-08-19T00:15:42.410Z,17.10
2017-08-19T00:18:09.916Z,17.00
2017-08-19T00:20:39.658Z,17.00
2017-08-19T00:23:07.284Z,16.90
2017-08-19T00:25:34.783Z,16.90
2017-08-19T00:28:02.352Z,16.90
2017-08-19T00:30:30.661Z,16.90
2017-08-19T00:32:58.170Z,16.90
2017-08-19T00:35:26.112Z,16.80
2017-08-19T00:37:53.635Z,16.80
2017-08-19T00:40:21.143Z,16.80
2017-08-19T00:42:49.695Z,16.80
2017-08-19T00:45:17.258Z,16.70
2017-08-19T00:47:44.770Z,16.70
2017-08-19T00:50:15.974Z,16.70
2017-08-19T00:52:44.398Z,16.70
2017-08-19T00:55:11.939Z,16.70
2017-08-19T00:57:39.491Z,16.70
2017-08-19T01:00:06.990Z,16.60
2017-08-19T01:02:34.503Z,16.60
2017-08-19T01:05:02.032Z,16.50
2017-08-19T01:07:32.650Z,16.50
2017-08-19T01:10:00.169Z,16.50
2017-08-19T01:12:28.310Z,16.40
2017-08-19T01:14:56.221Z,16.50
2017-08-19T01:17:23.727Z,16.50
2017-08-19T01:19:51.230Z,16.50
2017-08-19T01:22:21.714Z,16.40
2017-08-19T01:24:50.407Z,16.40
2017-08-19T01:27:18.000Z,16.40
2017-08-19T01:29:45.543Z,16.40
2017-08-19T01:32:13.043Z,16.50
2017-08-19T01:34:40.607Z,16.50
2017-08-19T01:37:08.115Z,16.50
2017-08-19T01:39:35.619Z,16.50
2017-08-19T01:42:03.164Z,16.50
2017-08-19T01:44:31.560Z,16.50
2017-08-19T01:46:59.088Z,16.50
2017-08-19T01:49:26.676Z,16.60
2017-08-19T01:51:54.220Z,16.60
2017-08-19T01:54:21.764Z,16.50
2017-08-19T01:56:49.272Z,16.50
2017-08-19T01:59:16.868Z,16.60
2017-08-19T02:01:45.282Z,16.60
2017-08-19T02:04:12.807Z,16.50
2017-08-19T02:06:47.642Z,16.50
2017-08-19T02:09:16.259Z,16.50
2017-08-19T02:11:43.778Z,16.50
2017-08-19T02:14:12.198Z,16.50
2017-08-19T02:16:40.143Z,16.50
2017-08-19T02:19:07.651Z,16.50
2017-08-19T02:21:35.185Z,16.50
2017-08-19T02:24:02.693Z,16.50
2017-08-19T02:26:30.620Z,16.50
2017-08-19T02:28:58.412Z,16.40
2017-08-19T02:31:25.912Z,16.40
2017-08-19T02:33:53.976Z,16.40
2017-08-19T02:36:21.475Z,16.40
2017-08-19T02:38:48.982Z,16.50
2017-08-19T02:41:16.499Z,16.60
2017-08-19T02:43:44.011Z,16.60
2017-08-19T02:46:11.556Z,16.60
2017-08-19T02:48:39.064Z,16.70
2017-08-19T02:51:07.377Z,16.70
2017-08-19T02:53:35.084Z,16.70
2017-08-19T02:56:02.705Z,16.70
2017-08-19T02:58:30.951Z,16.70
2017-08-19T03:00:58.469Z,16.70
2017-08-19T03:03:26.756Z,16.70
2017-08-19T03:05:54.276Z,16.70
2017-08-19T03:08:21.776Z,16.70
2017-08-19T03:10:49.331Z,16.70
2017-08-19T03:13:16.861Z,16.70
2017-08-19T03:15:44.433Z,16.70
2017-08-19T03:18:12.016Z,16.70
2017-08-19T03:20:40.287Z,16.80
2017-08-19T03:23:07.801Z,16.80
2017-08-19T03:25:36.119Z,16.80
2017-08-19T03:28:03.626Z,16.80
2017-08-19T03:30:31.180Z,16.80
2017-08-19T03:32:59.020Z,16.90
2017-08-19T03:35:26.631Z,16.90
2017-08-19T03:37:54.147Z,16.90
2017-08-19T03:40:21.657Z,16.90
2017-08-19T03:42:49.220Z,16.80
2017-08-19T03:45:16.719Z,16.80
2017-08-19T03:47:44.720Z,16.70
2017-08-19T03:50:14.352Z,16.50
2017-08-19T03:52:46.148Z,16.50
2017-08-19T03:55:14.161Z,16.50
2017-08-19T03:57:41.756Z,16.40
2017-08-19T04:00:09.264Z,16.40
2017-08-19T04:02:36.763Z,16.30
2017-08-19T04:05:04.343Z,16.20
2017-08-19T04:07:32.449Z,16.20
2017-08-19T04:09:59.994Z,16.20
2017-08-19T04:12:27.575Z,16.20
2017-08-19T04:14:55.091Z,16.20
2017-08-19T04:17:22.855Z,16.10
2017-08-19T04:19:50.351Z,16.10
2017-08-19T04:22:17.858Z,16.00
2017-08-19T04:24:46.306Z,16.00
2017-08-19T04:27:13.860Z,16.00
2017-08-19T04:29:41.371Z,15.90
2017-08-19T04:32:09.015Z,16.00
2017-08-19T04:34:36.513Z,15.90
2017-08-19T04:37:04.129Z,15.90
2017-08-19T04:39:32.730Z,16.10
2017-08-19T04:42:00.237Z,16.00
2017-08-19T04:44:27.787Z,16.20
2017-08-19T04:46:55.287Z,16.20
2017-08-19T04:49:22.792Z,16.30
2017-08-19T04:51:50.362Z,16.40
2017-08-19T04:54:18.026Z,16.50
2017-08-19T04:56:53.443Z,16.50
2017-08-19T04:59:20.955Z,16.50
2017-08-19T05:01:49.380Z,16.50
2017-08-19T05:04:16.903Z,16.60
2017-08-19T05:06:44.410Z,16.50
2017-08-19T05:09:11.922Z,16.60
2017-08-19T05:11:43.363Z,16.60
2017-08-19T05:14:11.279Z,16.70
2017-08-19T05:16:39.183Z,16.70
2017-08-19T05:19:07.131Z,16.80
2017-08-19T05:21:34.636Z,16.80
2017-08-19T05:24:02.143Z,16.80
2017-08-19T05:26:30.119Z,16.80
2017-08-19T05:28:58.768Z,16.80
2017-08-19T05:31:26.280Z,16.80
2017-08-19T05:33:53.785Z,16.80
2017-08-19T05:36:21.292Z,16.80
2017-08-19T05:38:48.804Z,16.80
2017-08-19T05:41:17.272Z,16.90
2017-08-19T05:43:44.790Z,16.90
2017-08-19T05:46:15.068Z,16.90
2017-08-19T05:48:42.568Z,17.00
2017-08-19T05:51:10.291Z,17.00
2017-08-19T05:53:37.796Z,17.10
2017-08-19T05:56:08.247Z,17.30
2017-08-19T05:58:35.800Z,17.30
2017-08-19T06:01:04.363Z,17.50
2017-08-19T06:03:31.909Z,17.50
2017-08-19T06:05:59.414Z,17.50
2017-08-19T06:08:26.924Z,17.60
2017-08-19T06:11:01.755Z,17.70
2017-08-19T06:13:29.360Z,17.90
2017-08-19T06:15:56.879Z,18.10
2017-08-19T06:18:25.222Z,18.20
2017-08-19T06:20:52.731Z,18.20
2017-08-19T06:23:20.244Z,18.10
2017-08-19T06:25:47.751Z,18.20
2017-08-19T06:28:19.720Z,18.10
2017-08-19T06:30:47.259Z,18.10
2017-08-19T06:33:14.800Z,18.40
2017-08-19T06:35:42.317Z,18.30
2017-08-19T06:38:10.568Z,18.30
2017-08-19T06:40:41.519Z,18.30
2017-08-19T06:43:09.076Z,18.40
2017-08-19T06:45:36.751Z,18.40
2017-08-19T06:48:04.255Z,18.50
2017-08-19T06:50:31.771Z,18.50
2017-08-19T06:53:00.038Z,18.60
2017-08-19T06:55:27.601Z,18.70
2017-08-19T06:57:59.794Z,18.60
2017-08-19T07:00:27.407Z,18.60
2017-08-19T07:02:55.049Z,18.70
2017-08-19T07:05:23.947Z,18.80
2017-08-19T07:07:51.496Z,18.80
2017-08-19T07:10:19.950Z,18.70
2017-08-19T07:12:48.165Z,18.50
2017-08-19T07:15:17.498Z,18.70
2017-08-19T07:17:45.060Z,18.80
2017-08-19T07:20:12.612Z,18.80
2017-08-19T07:22:40.144Z,18.90
2017-08-19T07:25:08.329Z,18.80
2017-08-19T07:27:43.372Z,18.90
2017-08-19T07:30:10.879Z,18.80
2017-08-19T07:32:38.397Z,18.60
2017-08-19T07:35:05.925Z,18.40
2017-08-19T07:37:34.399Z,18.40
2017-08-19T07:40:01.901Z,18.30
2017-08-19T07:42:29.476Z,18.40
2017-08-19T07:44:56.972Z,18.30
2017-08-19T07:47:24.486Z,18.60
2017-08-19T07:49:51.994Z,18.70
2017-08-19T07:52:19.544Z,18.70
2017-08-19T07:54:47.065Z,18.70
2017-08-19T07:57:14.602Z,18.60
2017-08-19T07:59:42.841Z,18.50
2017-08-19T08:02:10.355Z,18.50
2017-08-19T08:04:37.859Z,18.80
2017-08-19T08:07:05.551Z,19.10
2017-08-19T08:09:33.182Z,19.60
2017-08-19T08:12:01.619Z,20.00
2017-08-19T08:14:29.182Z,20.10
2017-08-19T08:16:56.692Z,21.10
2017-08-19T08:19:24.198Z,21.50
2017-08-19T08:21:51.787Z,21.20
2017-08-19T08:24:19.473Z,21.10
2017-08-19T08:26:46.988Z,20.90
2017-08-19T08:29:15.888Z,20.60
2017-08-19T08:31:43.726Z,20.50
2017-08-19T08:34:11.279Z,20.40
2017-08-19T08:36:38.791Z,20.50
2017-08-19T08:39:06.295Z,21.30
2017-08-19T08:41:34.765Z,21.60
2017-08-19T08:44:02.287Z,22.00
2017-08-19T08:46:32.911Z,22.40
2017-08-19T08:49:00.455Z,22.30
2017-08-19T08:51:27.984Z,23.20
2017-08-19T08:53:55.548Z,24.40
2017-08-19T08:56:23.820Z,25.90
2017-08-19T08:58:51.330Z,26.80
2017-08-19T09:01:18.895Z,27.90
2017-08-19T09:03:46.432Z,27.30
2017-08-19T09:06:14.699Z,28.40
2017-08-19T09:08:43.168Z,28.30
2017-08-19T09:11:10.687Z,29.10
2017-08-19T09:13:38.208Z,29.90
2017-08-19T09:16:10.043Z,31.00
2017-08-19T09:18:38.229Z,31.50
2017-08-19T09:21:06.600Z,31.50
2017-08-19T09:23:34.168Z,31.90
2017-08-19T09:26:02.593Z,33.00
2017-08-19T09:28:30.131Z,35.40
2017-08-19T09:31:01.153Z,37.50
2017-08-19T09:33:28.665Z,39.20
2017-08-19T09:35:56.916Z,40.10
2017-08-19T09:38:24.540Z,39.80
2017-08-19T09:40:52.075Z,38.30
2017-08-19T09:43:20.412Z,35.80
2017-08-19T09:45:47.928Z,34.60
2017-08-19T09:48:15.429Z,33.60
2017-08-19T09:50:42.931Z,33.50
2017-08-19T09:53:11.090Z,34.00
2017-08-19T09:55:38.624Z,34.40
2017-08-19T09:58:06.143Z,34.60
2017-08-19T10:00:37.255Z,34.70
2017-08-19T10:03:04.800Z,34.20
2017-08-19T10:05:32.299Z,35.60
2017-08-19T10:08:01.013Z,37.00
2017-08-19T10:10:40.397Z,38.00
2017-08-19T10:13:07.919Z,39.50
2017-08-19T10:15:35.423Z,40.90
2017-08-19T10:18:06.969Z,39.00
2017-08-19T10:20:34.532Z,38.20
2017-08-19T10:23:02.036Z,38.60
2017-08-19T10:25:29.547Z,39.30
2017-08-19T10:27:57.093Z,38.60
2017-08-19T10:30:24.599Z,37.60
2017-08-19T10:32:52.107Z,38.30
2017-08-19T10:35:24.144Z,39.20
2017-08-19T10:37:52.460Z,37.10
2017-08-19T10:40:20.011Z,37.10
2017-08-19T10:42:47.509Z,37.20
2017-08-19T10:45:19.075Z,36.60
2017-08-19T10:47:46.576Z,37.50
2017-08-19T10:50:14.136Z,39.40
2017-08-19T10:52:42.412Z,39.80
2017-08-19T10:55:09.911Z,39.80
2017-08-19T10:57:37.425Z,39.70
2017-08-19T11:00:06.628Z,37.00
2017-08-19T11:02:34.131Z,37.00
2017-08-19T11:05:01.655Z,35.40
2017-08-19T11:07:29.155Z,35.50
2017-08-19T11:09:56.671Z,36.10
2017-08-19T11:12:24.841Z,37.30
2017-08-19T11:14:52.347Z,37.30
2017-08-19T11:17:24.420Z,35.40
2017-08-19T11:19:52.409Z,35.70
2017-08-19T11:22:19.956Z,37.00
2017-08-19T11:24:47.499Z,37.30
2017-08-19T11:27:15.072Z,36.00
2017-08-19T11:29:42.640Z,36.20
2017-08-19T11:32:13.260Z,38.30
2017-08-19T11:34:40.823Z,39.00
2017-08-19T11:37:09.260Z,38.80
2017-08-19T11:39:36.759Z,36.90
2017-08-19T11:42:04.293Z,35.10
2017-08-19T11:44:31.791Z,33.70
2017-08-19T11:47:00.219Z,32.20
2017-08-19T11:49:29.363Z,29.80
2017-08-19T11:51:56.865Z,28.20
2017-08-19T11:54:25.155Z,26.70
2017-08-19T11:56:53.203Z,26.70
2017-08-19T11:59:20.719Z,26.50
2017-08-19T12:01:50.982Z,25.40
2017-08-19T12:04:19.035Z,24.60
2017-08-19T12:06:46.538Z,23.80
2017-08-19T12:09:14.059Z,23.30
2017-08-19T12:11:42.506Z,23.00
2017-08-19T12:14:10.007Z,24.00
2017-08-19T12:16:37.538Z,28.40
2017-08-19T12:19:08.060Z,32.60
2017-08-19T12:21:35.645Z,35.30
2017-08-19T12:24:03.207Z,37.20
2017-08-19T12:26:30.712Z,38.70
2017-08-19T12:28:58.233Z,38.50
2017-08-19T12:31:37.021Z,38.20
2017-08-19T12:34:04.528Z,38.10
2017-08-19T12:36:32.783Z,36.00
2017-08-19T12:39:00.290Z,33.80
2017-08-19T12:41:27.787Z,32.90
2017-08-19T12:43:55.289Z,31.30
2017-08-19T12:46:22.803Z,29.70
2017-08-19T12:48:57.903Z,30.30
2017-08-19T12:51:26.204Z,32.00
2017-08-19T12:53:53.719Z,33.50
2017-08-19T12:56:21.216Z,33.40
2017-08-19T12:58:48.753Z,32.70
2017-08-19T13:01:17.191Z,32.00
2017-08-19T13:03:47.848Z,30.70
2017-08-19T13:06:16.060Z,29.80
2017-08-19T13:08:43.614Z,29.20
2017-08-19T13:11:12.093Z,28.70
2017-08-19T13:13:39.611Z,28.00
2017-08-19T13:16:07.134Z,26.60
2017-08-19T13:18:34.648Z,26.20
2017-08-19T13:21:02.158Z,26.20
2017-08-19T13:23:29.713Z,26.20
2017-08-19T13:25:57.215Z,26.10
2017-08-19T13:28:25.516Z,26.00
2017-08-19T13:30:53.830Z,26.40
2017-08-19T13:33:23.911Z,26.40
2017-08-19T13:35:51.456Z,26.30
2017-08-19T13:38:20.600Z,26.10
2017-08-19T13:40:48.135Z,25.80
2017-08-19T13:43:15.668Z,25.80
2017-08-19T13:45:43.179Z,25.70
2017-08-19T13:48:10.700Z,25.30
2017-08-19T13:50:41.816Z,25.20
2017-08-19T13:53:09.944Z,25.10
2017-08-19T13:55:37.451Z,25.00
2017-08-19T13:58:04.963Z,25.10
2017-08-19T14:00:32.468Z,25.00
2017-08-19T14:03:02.859Z,24.90
2017-08-19T14:05:31.303Z,24.50
2017-08-19T14:07:59.263Z,24.50
2017-08-19T14:10:27.883Z,24.40
2017-08-19T14:12:55.382Z,24.40
2017-08-19T14:15:22.899Z,24.50
2017-08-19T14:17:51.252Z,24.70
2017-08-19T14:20:19.876Z,24.60
2017-08-19T14:22:47.457Z,24.50
2017-08-19T14:25:14.991Z,24.40
2017-08-19T14:27:43.024Z,24.20
2017-08-19T14:30:10.592Z,24.10
2017-08-19T14:32:38.316Z,24.00
2017-08-19T14:35:05.844Z,24.20
2017-08-19T14:37:33.356Z,24.40
2017-08-19T14:40:00.935Z,24.60
2017-08-19T14:42:28.452Z,24.60
2017-08-19T14:44:56.891Z,24.60
2017-08-19T14:47:25.551Z,24.70
2017-08-19T14:49:53.064Z,24.60
2017-08-19T14:52:21.415Z,24.50
2017-08-19T14:54:48.968Z,24.50
2017-08-19T14:57:17.284Z,24.00
2017-08-19T14:59:45.393Z,23.90
2017-08-19T15:02:12.915Z,23.70
2017-08-19T15:04:40.740Z,23.60
2017-08-19T15:07:08.408Z,23.40
2017-08-19T15:09:35.969Z,23.20
2017-08-19T15:12:03.478Z,23.10
2017-08-19T15:14:31.020Z,23.00
2017-08-19T15:16:58.544Z,23.00
2017-08-19T15:19:29.555Z,22.90
2017-08-19T15:21:57.129Z,22.90
2017-08-19T15:24:25.137Z,22.80
2017-08-19T15:26:52.710Z,22.80
2017-08-19T15:29:20.407Z,22.70
2017-08-19T15:31:47.924Z,22.70
2017-08-19T15:34:19.179Z,22.30
2017-08-19T15:36:46.712Z,22.30
2017-08-19T15:39:14.239Z,22.20
2017-08-19T15:41:41.855Z,22.10
2017-08-19T15:44:09.456Z,22.20
2017-08-19T15:46:37.116Z,22.30
2017-08-19T15:49:04.671Z,22.20
2017-08-19T15:51:32.863Z,22.10
2017-08-19T15:54:00.376Z,22.30
2017-08-19T15:56:27.920Z,22.60
2017-08-19T15:58:55.488Z,22.90
2017-08-19T16:01:23.779Z,23.40
2017-08-19T16:03:52.752Z,23.50
2017-08-19T16:06:23.998Z,23.50
2017-08-19T16:08:53.635Z,23.10
2017-08-19T16:11:21.159Z,23.10
2017-08-19T16:13:48.721Z,23.00
2017-08-19T16:16:16.247Z,22.90
2017-08-19T16:18:43.756Z,22.60
2017-08-19T16:21:14.625Z,22.30
2017-08-19T16:23:45.751Z,22.20
2017-08-19T16:26:13.481Z,22.10
2017-08-19T16:28:41.763Z,22.10
2017-08-19T16:31:09.287Z,22.10
2017-08-19T16:33:37.376Z,22.10
2017-08-19T16:36:08.627Z,22.00
2017-08-19T16:38:36.127Z,21.80
2017-08-19T16:41:03.660Z,21.70
2017-08-19T16:43:31.831Z,21.60
2017-08-19T16:45:59.387Z,21.60
2017-08-19T16:48:26.887Z,21.50
2017-08-19T16:50:59.081Z,21.60
2017-08-19T16:53:26.587Z,21.60
2017-08-19T16:55:54.556Z,21.50
2017-08-19T16:58:22.067Z,21.50
2017-08-19T17:00:49.573Z,21.30
2017-08-19T17:03:17.120Z,21.30
2017-08-19T17:05:48.122Z,21.20
2017-08-19T17:08:19.178Z,21.00
2017-08-19T17:10:47.658Z,21.00
2017-08-19T17:13:15.180Z,21.00
2017-08-19T17:15:43.460Z,20.90
2017-08-19T17:18:11.528Z,20.90
2017-08-19T17:20:39.095Z,20.90
2017-08-19T17:23:06.651Z,20.90
2017-08-19T17:25:34.176Z,20.80
2017-08-19T17:28:01.760Z,20.80
2017-08-19T17:30:29.277Z,20.80
2017-08-19T17:32:56.785Z,20.70
2017-08-19T17:35:25.019Z,20.70
2017-08-19T17:37:55.150Z,20.60
2017-08-19T17:40:22.707Z,20.60
2017-08-19T17:42:50.219Z,20.60
2017-08-19T17:45:17.772Z,20.50
2017-08-19T17:47:45.368Z,20.50
2017-08-19T17:50:12.896Z,20.40
2017-08-19T17:52:40.408Z,20.30
2017-08-19T17:55:08.847Z,20.30
2017-08-19T17:57:36.375Z,20.30
2017-08-19T18:00:03.912Z,20.30
2017-08-19T18:02:31.597Z,20.10
2017-08-19T18:04:59.120Z,20.10
2017-08-19T18:07:26.635Z,20.00
2017-08-19T18:09:54.184Z,19.90
2017-08-19T18:12:22.288Z,19.80
2017-08-19T18:14:50.014Z,19.70
2017-08-19T18:17:17.565Z,19.60
2017-08-19T18:19:46.007Z,19.60
2017-08-19T18:22:19.383Z,19.60
2017-08-19T18:24:47.543Z,19.60
2017-08-19T18:27:15.055Z,19.50
2017-08-19T18:29:43.296Z,19.50
2017-08-19T18:32:11.001Z,19.50
2017-08-19T18:34:39.063Z,19.40
2017-08-19T18:37:07.405Z,19.40
2017-08-19T18:39:34.960Z,19.30
2017-08-19T18:42:02.467Z,19.30
2017-08-19T18:44:29.985Z,19.30
2017-08-19T18:46:57.487Z,19.30
2017-08-19T18:49:25.931Z,19.20
2017-08-19T18:51:53.439Z,19.30
2017-08-19T18:54:20.942Z,19.30
2017-08-19T18:56:48.440Z,19.30
2017-08-19T18:59:15.988Z,19.30
2017-08-19T19:01:43.552Z,19.40
2017-08-19T19:04:11.084Z,19.30
2017-08-19T19:06:39.285Z,19.30
2017-08-19T19:09:11.024Z,19.30
2017-08-19T19:11:38.571Z,19.30
2017-08-19T19:14:06.107Z,19.20
2017-08-19T19:16:34.256Z,19.20
2017-08-19T19:19:01.756Z,19.10
2017-08-19T19:21:29.267Z,19.00
2017-08-19T19:24:00.214Z,18.90
2017-08-19T19:26:27.768Z,18.90
2017-08-19T19:28:55.309Z,18.90
2017-08-19T19:31:24.417Z,18.90
2017-08-19T19:33:53.219Z,18.80
2017-08-19T19:36:20.733Z,18.90
2017-08-19T19:38:51.665Z,18.70
2017-08-19T19:41:19.607Z,18.50
2017-08-19T19:43:47.555Z,18.30
2017-08-19T19:46:15.858Z,18.10
2017-08-19T19:48:43.363Z,18.00
2017-08-19T19:51:10.879Z,17.80
2017-08-19T19:53:45.967Z,17.60
2017-08-19T19:56:14.063Z,17.50
2017-08-19T19:58:41.624Z,17.50
2017-08-19T20:01:09.140Z,17.50
2017-08-19T20:03:37.288Z,17.30
2017-08-19T20:06:04.839Z,17.10
2017-08-19T20:08:33.130Z,17.00
2017-08-19T20:11:00.640Z,17.00
2017-08-19T20:13:28.146Z,17.00
2017-08-19T20:15:55.871Z,16.90
2017-08-19T20:18:23.388Z,16.90
2017-08-19T20:20:52.587Z,16.60
2017-08-19T20:23:20.115Z,16.60
2017-08-19T20:25:49.836Z,16.50
2017-08-19T20:28:17.349Z,16.50
2017-08-19T20:30:44.913Z,16.30
2017-08-19T20:33:12.431Z,16.30
2017-08-19T20:35:39.939Z,16.30
2017-08-19T20:38:07.448Z,16.30
2017-08-19T20:40:34.975Z,16.20
2017-08-19T20:43:02.503Z,16.20
2017-08-19T20:45:31.464Z,16.10
2017-08-19T20:47:58.978Z,16.10
2017-08-19T20:50:26.483Z,16.00
2017-08-19T20:52:54.004Z,16.00
2017-08-19T20:55:21.513Z,15.90
2017-08-19T20:57:49.659Z,15.80
2017-08-19T21:00:17.191Z,15.80
2017-08-19T21:02:44.704Z,15.80
2017-08-19T21:05:12.251Z,15.70
2017-08-19T21:07:39.774Z,15.60
2017-08-19T21:10:08.207Z,15.60
2017-08-19T21:12:35.747Z,15.60
2017-08-19T21:15:03.528Z,15.50
2017-08-19T21:17:31.068Z,15.50
2017-08-19T21:19:59.721Z,15.50
2017-08-19T21:22:27.927Z,15.50
2017-08-19T21:24:55.443Z,15.40
2017-08-19T21:27:22.948Z,15.30
2017-08-19T21:29:50.476Z,15.30
2017-08-19T21:32:18.053Z,15.30
2017-08-19T21:34:45.656Z,15.30
2017-08-19T21:37:13.155Z,15.20
2017-08-19T21:39:41.391Z,15.20
2017-08-19T21:42:12.781Z,15.10
2017-08-19T21:44:40.308Z,15.10
2017-08-19T21:47:07.829Z,15.00
2017-08-19T21:49:36.323Z,15.10
2017-08-19T21:52:03.909Z,15.00
2017-08-19T21:54:31.440Z,15.00
2017-08-19T21:57:03.858Z,14.90
2017-08-19T21:59:31.381Z,14.80
2017-08-19T22:01:58.932Z,14.90
2017-08-19T22:04:26.488Z,15.00
2017-08-19T22:06:54.190Z,15.00
2017-08-19T22:09:21.732Z,14.90
2017-08-19T22:11:50.935Z,14.90
2017-08-19T22:14:18.480Z,14.80
2017-08-19T22:16:45.984Z,14.90
2017-08-19T22:19:13.523Z,14.90
2017-08-19T22:21:41.037Z,14.90
2017-08-19T22:24:09.520Z,14.90
2017-08-19T22:26:41.680Z,15.00
2017-08-19T22:29:10.025Z,15.00
2017-08-19T22:31:38.397Z,15.00
2017-08-19T22:34:05.891Z,15.00
2017-08-19T22:36:33.515Z,15.00
2017-08-19T22:39:01.020Z,15.00
2017-08-19T22:41:32.322Z,15.00
2017-08-19T22:43:59.819Z,15.00
2017-08-19T22:46:27.447Z,14.90
2017-08-19T22:48:54.988Z,14.80
2017-08-19T22:51:22.499Z,14.80
2017-08-19T22:53:50.048Z,14.80
2017-08-19T22:56:17.564Z,14.80
2017-08-19T22:58:48.969Z,14.60
2017-08-19T23:01:16.521Z,14.50
2017-08-19T23:03:44.042Z,14.50
2017-08-19T23:06:11.587Z,14.40
2017-08-19T23:08:39.416Z,14.40
2017-08-19T23:11:06.926Z,14.30
2017-08-19T23:13:43.229Z,14.20
2017-08-19T23:16:10.800Z,14.20
2017-08-19T23:18:38.883Z,14.20
2017-08-19T23:21:06.395Z,14.10
2017-08-19T23:23:33.937Z,14.10
2017-08-19T23:26:01.500Z,14.10
2017-08-19T23:28:29.224Z,14.00
2017-08-19T23:30:56.755Z,14.00
2017-08-19T23:33:24.319Z,13.90
2017-08-19T23:35:53.727Z,13.90
2017-08-19T23:38:21.283Z,13.90
2017-08-19T23:40:48.835Z,13.90
2017-08-19T23:43:17.183Z,13.80
2017-08-19T23:45:48.531Z,13.90
2017-08-19T23:48:16.504Z,13.90
2017-08-19T23:50:44.011Z,13.90
2017-08-19T23:53:12.132Z,13.90
2017-08-19T23:55:39.689Z,13.90
2017-08-19T23:58:10.532Z,13.90
